Climatologie pour Saint-Brevin les Pins
Jour • Résumé pour mai 28, 2017 Système :  Métrique    Anglais   Mixte
« - 1 jour
+ 1 jour »
Jour Semaine Mois Année Personnalisé
  Maximum : Minimum : Moyenne :
Température sous abri : 27.8 °C 16.5 °C 20.1 °C
Point de rosée : 22.4 °C 14.7 °C 17.5 °C
Humidité : 97 % 61 % 86 %
Vitesse du vent : 17.7 km/h 0.0 km/h 4.8 km/h
Rafale : 48.3 km/h - -
Direction :- - SE
Pression : 1016.1 hPa 1011.1 hPa -
Précipitations : 2.3 mm    
Historical Graphs
 
 
Tableau de données pour mai 28, 2017
Heure Tempé Pt rosée Pression Vent Vitesse Rafale Humidité Taux pluie (/hr) Soleil
00:00 20.0 °C 16.2 °C 1014.8 hPa Calm   6.4 km/h 79 % 0.0 mm 0 W/m2
00:10 19.8 °C 16.3 °C 1014.8 hPa NE 3.2 km/h 8.0 km/h 80 % 0.0 mm 0 W/m2
00:15 19.6 °C 16.1 °C 1014.8 hPa NE 1.6 km/h 6.4 km/h 80 % 0.0 mm 0 W/m2
00:20 19.6 °C 16.2 °C 1014.8 hPa Calm   6.4 km/h 81 % 0.0 mm 0 W/m2
00:25 19.4 °C 16.1 °C 1015.1 hPa ENE 4.8 km/h 6.4 km/h 81 % 0.0 mm 0 W/m2
00:30 19.6 °C 16.2 °C 1015.1 hPa Calm   12.9 km/h 81 % 0.0 mm 0 W/m2
00:35 19.7 °C 16.3 °C 1015.1 hPa NE 4.8 km/h 12.9 km/h 81 % 0.0 mm 0 W/m2
00:40 19.5 °C 16.2 °C 1015.1 hPa NE 4.8 km/h 8.0 km/h 81 % 0.0 mm 0 W/m2
00:45 19.4 °C 16.3 °C 1015.1 hPa NE 3.2 km/h 11.3 km/h 82 % 0.0 mm 0 W/m2
00:50 19.4 °C 16.3 °C 1015.1 hPa Calm   11.3 km/h 82 % 0.0 mm 0 W/m2
00:55 19.4 °C 16.3 °C 1015.1 hPa East 4.8 km/h 16.1 km/h 82 % 0.0 mm 0 W/m2
01:00 19.4 °C 16.3 °C 1015.5 hPa NNE 6.4 km/h 16.1 km/h 82 % 0.0 mm 0 W/m2
01:05 19.3 °C 16.3 °C 1015.1 hPa NE 4.8 km/h 11.3 km/h 83 % 0.0 mm 0 W/m2
01:10 19.1 °C 16.3 °C 1015.1 hPa NE 6.4 km/h 9.7 km/h 84 % 0.0 mm 0 W/m2
01:15 19.1 °C 16.3 °C 1015.1 hPa North 4.8 km/h 11.3 km/h 84 % 0.0 mm 0 W/m2
01:20 19.0 °C 16.2 °C 1015.1 hPa NNE 6.4 km/h 11.3 km/h 84 % 0.0 mm 0 W/m2
01:25 18.9 °C 16.3 °C 1015.1 hPa NNE 6.4 km/h 17.7 km/h 85 % 0.0 mm 0 W/m2
01:30 18.8 °C 16.1 °C 1015.1 hPa NNE 6.4 km/h 19.3 km/h 84 % 0.0 mm 0 W/m2
01:35 18.7 °C 16.1 °C 1015.1 hPa NNE 6.4 km/h 19.3 km/h 85 % 0.0 mm 0 W/m2
01:40 18.5 °C 15.9 °C 1015.1 hPa NE 1.6 km/h 12.9 km/h 85 % 0.0 mm 0 W/m2
01:45 18.3 °C 15.9 °C 1015.1 hPa NE 9.7 km/h 12.9 km/h 86 % 0.0 mm 0 W/m2
01:50 18.2 °C 15.8 °C 1015.1 hPa NNE 8.0 km/h 14.5 km/h 86 % 0.0 mm 0 W/m2
01:55 18.1 °C 15.7 °C 1015.1 hPa NNW 9.7 km/h 14.5 km/h 86 % 0.0 mm 0 W/m2
02:00 17.9 °C 15.5 °C 1015.5 hPa Calm   16.1 km/h 86 % 0.0 mm 0 W/m2
02:05 17.8 °C 15.4 °C 1015.5 hPa NE 4.8 km/h 16.1 km/h 86 % 0.0 mm 0 W/m2
02:10 17.7 °C 15.3 °C 1015.1 hPa Calm   14.5 km/h 86 % 0.0 mm 0 W/m2
02:15 17.6 °C 15.2 °C 1015.1 hPa NNE 4.8 km/h 12.9 km/h 86 % 0.0 mm 0 W/m2
02:20 17.4 °C 15.1 °C 1015.1 hPa ENE 12.9 km/h 16.1 km/h 86 % 0.0 mm 0 W/m2
02:25 17.3 °C 15.0 °C 1015.1 hPa NNE 4.8 km/h 16.1 km/h 86 % 0.0 mm 0 W/m2
02:30 17.3 °C 14.9 °C 1015.1 hPa NE 6.4 km/h 14.5 km/h 86 % 0.0 mm 0 W/m2
02:35 17.2 °C 15.0 °C 1015.1 hPa NE 4.8 km/h 14.5 km/h 87 % 0.0 mm 0 W/m2
02:40 17.1 °C 14.9 °C 1015.1 hPa NE 4.8 km/h 14.5 km/h 87 % 0.0 mm 0 W/m2
02:45 17.1 °C 14.9 °C 1015.5 hPa ENE 4.8 km/h 16.1 km/h 87 % 0.0 mm 0 W/m2
02:50 17.1 °C 14.9 °C 1015.5 hPa NE 8.0 km/h 16.1 km/h 87 % 0.0 mm 0 W/m2
02:55 17.0 °C 14.8 °C 1015.1 hPa NE 4.8 km/h 16.1 km/h 87 % 0.0 mm 0 W/m2
03:00 16.9 °C 14.8 °C 1015.5 hPa NNE 1.6 km/h 16.1 km/h 87 % 0.0 mm 0 W/m2
03:05 16.9 °C 14.8 °C 1015.1 hPa NE 12.9 km/h 12.9 km/h 87 % 0.0 mm 0 W/m2
03:10 16.9 °C 14.7 °C 1015.1 hPa ENE 1.6 km/h 12.9 km/h 87 % 0.0 mm 0 W/m2
03:15 16.9 °C 14.7 °C 1015.1 hPa Calm   12.9 km/h 87 % 0.0 mm 0 W/m2
03:20 16.9 °C 14.7 °C 1015.5 hPa ESE 1.6 km/h 11.3 km/h 87 % 0.0 mm 0 W/m2
03:25 16.9 °C 14.8 °C 1015.5 hPa ENE 1.6 km/h 9.7 km/h 87 % 0.0 mm 0 W/m2
03:30 17.1 °C 14.9 °C 1015.5 hPa ENE 3.2 km/h 9.7 km/h 87 % 0.0 mm 0 W/m2
03:35 17.1 °C 14.9 °C 1015.5 hPa ENE 4.8 km/h 9.7 km/h 87 % 0.0 mm 0 W/m2
03:40 17.1 °C 14.9 °C 1015.5 hPa ENE 8.0 km/h 11.3 km/h 87 % 0.0 mm 0 W/m2
03:45 17.2 °C 15.0 °C 1015.8 hPa East 1.6 km/h 11.3 km/h 87 % 0.0 mm 0 W/m2
03:50 17.2 °C 15.0 °C 1015.5 hPa East 8.0 km/h 9.7 km/h 87 % 0.0 mm 0 W/m2
03:55 17.2 °C 15.0 °C 1015.5 hPa East 1.6 km/h 9.7 km/h 87 % 0.0 mm 0 W/m2
04:00 17.2 °C 15.0 °C 1015.5 hPa NE 6.4 km/h 9.7 km/h 87 % 0.0 mm 0 W/m2
04:10 17.2 °C 15.2 °C 1015.1 hPa ESE 3.2 km/h 9.7 km/h 88 % 0.0 mm 0 W/m2
04:15 17.1 °C 15.1 °C 1014.8 hPa SE 8.0 km/h 11.3 km/h 88 % 0.0 mm 0 W/m2
04:20 17.1 °C 15.3 °C 1014.8 hPa ESE 4.8 km/h 11.3 km/h 89 % 0.0 mm 0 W/m2
04:25 17.2 °C 15.5 °C 1013.8 hPa East 16.1 km/h 27.4 km/h 90 % 0.0 mm 0 W/m2
04:35 17.8 °C 16.3 °C 1012.1 hPa ESE 11.3 km/h 40.2 km/h 91 % 0.0 mm 0 W/m2
04:40 18.1 °C 16.7 °C 1011.4 hPa ESE 17.7 km/h 40.2 km/h 92 % 0.0 mm 0 W/m2
04:45 18.5 °C 17.2 °C 1011.1 hPa ESE 14.5 km/h 48.3 km/h 92 % 0.3 mm 0 W/m2
04:50 18.8 °C 17.2 °C 1011.7 hPa ENE 8.0 km/h 48.3 km/h 90 % 0.3 mm 0 W/m2
04:55 18.8 °C 16.9 °C 1011.7 hPa NNW 9.7 km/h 32.2 km/h 89 % 0.3 mm 0 W/m2
05:00 18.6 °C 16.9 °C 1011.7 hPa NNW 11.3 km/h 14.5 km/h 90 % 0.3 mm 0 W/m2
05:05 18.2 °C 16.6 °C 1011.4 hPa ENE 12.9 km/h 20.9 km/h 90 % 0.3 mm 0 W/m2
05:10 18.1 °C 16.4 °C 1011.4 hPa NE 9.7 km/h 20.9 km/h 90 % 0.3 mm 0 W/m2
05:15 17.9 °C 16.3 °C 1011.4 hPa Calm   20.9 km/h 90 % 0.3 mm 0 W/m2
05:20 17.8 °C 16.1 °C 1012.1 hPa North 9.7 km/h 16.1 km/h 90 % 0.3 mm 0 W/m2
05:25 17.7 °C 16.2 °C 1011.7 hPa NNE 4.8 km/h 12.9 km/h 91 % 0.3 mm 0 W/m2
05:30 17.7 °C 16.0 °C 1011.7 hPa NW 3.2 km/h 14.5 km/h 90 % 0.3 mm 0 W/m2
05:35 17.6 °C 15.9 °C 1012.1 hPa NNE 8.0 km/h 14.5 km/h 90 % 0.3 mm 0 W/m2
05:40 17.5 °C 16.0 °C 1012.1 hPa Calm   14.5 km/h 91 % 0.0 mm 0 W/m2
05:45 17.4 °C 15.7 °C 1012.1 hPa North 4.8 km/h 17.7 km/h 90 % 0.0 mm 0 W/m2
05:50 17.4 °C 15.9 °C 1011.7 hPa NNE 3.2 km/h 17.7 km/h 91 % 0.0 mm 0 W/m2
05:55 17.4 °C 15.7 °C 1012.1 hPa North 6.4 km/h 11.3 km/h 90 % 0.0 mm 0 W/m2
06:00 17.2 °C 15.5 °C 1012.1 hPa NNE 4.8 km/h 6.4 km/h 90 % 0.0 mm 0 W/m2
06:05 17.1 °C 15.6 °C 1012.4 hPa Calm   9.7 km/h 91 % 0.0 mm 0 W/m2
06:10 17.2 °C 15.7 °C 1012.8 hPa NE 3.2 km/h 9.7 km/h 91 % 0.0 mm 0 W/m2
06:15 17.2 °C 15.5 °C 1012.8 hPa North 1.6 km/h 9.7 km/h 90 % 0.0 mm 0 W/m2
06:20 17.2 °C 15.6 °C 1012.8 hPa NNE 3.2 km/h 8.0 km/h 90 % 0.0 mm 0 W/m2
06:25 17.1 °C 15.5 °C 1012.8 hPa North 3.2 km/h 6.4 km/h 90 % 0.0 mm 0 W/m2
06:30 17.1 °C 15.4 °C 1013.1 hPa North 3.2 km/h 6.4 km/h 90 % 0.0 mm 5 W/m2
06:35 16.9 °C 15.3 °C 1013.1 hPa NE 3.2 km/h 6.4 km/h 90 % 0.0 mm 7 W/m2
06:40 16.8 °C 15.1 °C 1013.1 hPa North 4.8 km/h 8.0 km/h 90 % 0.0 mm 9 W/m2
06:45 16.5 °C 15.0 °C 1013.1 hPa NNW 1.6 km/h 8.0 km/h 91 % 0.0 mm 11 W/m2
06:50 16.5 °C 15.2 °C 1013.1 hPa Calm   6.4 km/h 92 % 0.0 mm 14 W/m2
06:55 16.6 °C 15.3 °C 1013.4 hPa Calm   4.8 km/h 92 % 0.0 mm 23 W/m2
07:00 16.7 °C 15.2 °C 1013.8 hPa NNW 1.6 km/h 3.2 km/h 91 % 0.0 mm 26 W/m2
07:05 16.7 °C 15.4 °C 1013.8 hPa Calm   3.2 km/h 92 % 0.0 mm 26 W/m2
07:10 16.8 °C 15.5 °C 1013.8 hPa NNW 1.6 km/h 1.6 km/h 92 % 0.0 mm 26 W/m2
07:15 17.1 °C 15.7 °C 1014.1 hPa NNW 3.2 km/h 3.2 km/h 92 % 0.0 mm 33 W/m2
07:20 17.2 °C 15.7 °C 1014.4 hPa Calm   8.0 km/h 91 % 0.0 mm 51 W/m2
07:25 17.4 °C 15.9 °C 1014.4 hPa Calm   8.0 km/h 91 % 0.0 mm 69 W/m2
07:30 17.6 °C 16.1 °C 1014.4 hPa Calm   6.4 km/h 91 % 0.0 mm 67 W/m2
07:35 17.7 °C 16.2 °C 1014.4 hPa Calm   3.2 km/h 91 % 0.0 mm 60 W/m2
07:40 17.7 °C 16.2 °C 1014.4 hPa Calm   1.6 km/h 91 % 0.0 mm 51 W/m2
07:45 17.7 °C 16.4 °C 1014.4 hPa Calm   1.6 km/h 92 % 0.0 mm 49 W/m2
07:50 17.6 °C 16.3 °C 1014.8 hPa SW 3.2 km/h 3.2 km/h 92 % 0.0 mm 54 W/m2
07:55 17.7 °C 16.4 °C 1015.5 hPa WSW 1.6 km/h 6.4 km/h 92 % 0.0 mm 56 W/m2
08:00 17.9 °C 16.4 °C 1015.5 hPa WSW 6.4 km/h 9.7 km/h 91 % 0.0 mm 54 W/m2
08:05 18.0 °C 16.3 °C 1015.8 hPa WSW 3.2 km/h 9.7 km/h 90 % 0.0 mm 35 W/m2
08:10 18.0 °C 16.3 °C 1015.8 hPa SW 3.2 km/h 8.0 km/h 90 % 0.0 mm 26 W/m2
08:15 17.9 °C 16.2 °C 1015.8 hPa Calm   6.4 km/h 90 % 0.0 mm 26 W/m2
08:20 17.9 °C 16.5 °C 1015.8 hPa Calm   4.8 km/h 91 % 0.0 mm 25 W/m2
08:25 17.9 °C 16.5 °C 1016.1 hPa SSE 3.2 km/h 6.4 km/h 91 % 0.0 mm 18 W/m2
08:30 17.9 °C 16.5 °C 1016.1 hPa Calm   8.0 km/h 91 % 0.0 mm 12 W/m2
08:35 17.9 °C 16.4 °C 1016.1 hPa Calm   8.0 km/h 91 % 0.3 mm 12 W/m2
08:40 17.8 °C 16.5 °C 1015.8 hPa Calm   3.2 km/h 92 % 0.3 mm 14 W/m2
08:45 17.8 °C 16.6 °C 1015.5 hPa SSE 1.6 km/h 3.2 km/h 93 % 0.5 mm 14 W/m2
08:50 17.7 °C 16.5 °C 1015.5 hPa Calm   3.2 km/h 93 % 0.5 mm 16 W/m2
08:55 17.6 °C 16.6 °C 1015.8 hPa SSE 1.6 km/h 3.2 km/h 94 % 0.5 mm 19 W/m2
09:00 17.6 °C 16.6 °C 1015.8 hPa Calm   3.2 km/h 94 % 0.8 mm 23 W/m2
09:05 17.6 °C 16.8 °C 1016.1 hPa SSW 1.6 km/h 4.8 km/h 95 % 0.8 mm 32 W/m2
09:10 17.7 °C 16.9 °C 1016.1 hPa Calm   6.4 km/h 95 % 1.0 mm 46 W/m2
09:15 17.7 °C 16.9 °C 1016.1 hPa Calm   6.4 km/h 95 % 1.0 mm 58 W/m2
09:20 17.8 °C 17.0 °C 1016.1 hPa WNW 1.6 km/h 4.8 km/h 95 % 1.0 mm 37 W/m2
09:25 17.8 °C 17.2 °C 1016.1 hPa WSW 1.6 km/h 4.8 km/h 96 % 1.0 mm 51 W/m2
09:30 17.8 °C 17.2 °C 1016.1 hPa Calm   4.8 km/h 96 % 1.0 mm 47 W/m2
09:35 17.9 °C 17.3 °C 1015.1 hPa NE 3.2 km/h 6.4 km/h 96 % 0.8 mm 44 W/m2
09:40 18.1 °C 17.4 °C 1014.8 hPa ENE 1.6 km/h 8.0 km/h 96 % 0.8 mm 33 W/m2
09:45 18.1 °C 17.4 °C 1014.8 hPa ENE 6.4 km/h 8.0 km/h 96 % 0.8 mm 44 W/m2
09:50 18.1 °C 17.5 °C 1014.1 hPa ENE 11.3 km/h 14.5 km/h 96 % 0.5 mm 44 W/m2
09:55 18.1 °C 17.5 °C 1013.8 hPa ENE 4.8 km/h 14.5 km/h 96 % 0.8 mm 51 W/m2
10:00 18.2 °C 17.5 °C 1014.1 hPa NE 4.8 km/h 14.5 km/h 96 % 0.5 mm 53 W/m2
10:05 18.2 °C 17.5 °C 1014.4 hPa East 1.6 km/h 11.3 km/h 96 % 0.5 mm 60 W/m2
10:10 18.2 °C 17.6 °C 1014.8 hPa Calm   11.3 km/h 96 % 0.5 mm 53 W/m2
10:15 18.3 °C 17.7 °C 1014.8 hPa ESE 6.4 km/h 8.0 km/h 96 % 0.5 mm 49 W/m2
10:20 18.3 °C 17.7 °C 1014.8 hPa ESE 1.6 km/h 9.7 km/h 96 % 0.5 mm 37 W/m2
10:25 18.4 °C 17.7 °C 1015.1 hPa ESE 1.6 km/h 9.7 km/h 96 % 0.5 mm 26 W/m2
10:30 18.3 °C 17.7 °C 1015.5 hPa SE 1.6 km/h 8.0 km/h 96 % 0.5 mm 25 W/m2
10:35 18.4 °C 17.7 °C 1015.5 hPa SE 3.2 km/h 8.0 km/h 96 % 0.8 mm 30 W/m2
10:40 18.4 °C 17.8 °C 1015.1 hPa East 3.2 km/h 9.7 km/h 96 % 0.8 mm 39 W/m2
10:45 18.4 °C 17.8 °C 1014.8 hPa East 3.2 km/h 9.7 km/h 96 % 0.8 mm 65 W/m2
10:50 18.4 °C 17.8 °C 1014.8 hPa ESE 1.6 km/h 8.0 km/h 96 % 0.8 mm 63 W/m2
11:00 18.7 °C 18.0 °C 1013.8 hPa East 11.3 km/h 14.5 km/h 96 % 0.5 mm 142 W/m2
11:05 18.7 °C 18.0 °C 1013.4 hPa ENE 11.3 km/h 20.9 km/h 96 % 0.5 mm 144 W/m2
11:10 18.7 °C 18.2 °C 1013.8 hPa East 8.0 km/h 20.9 km/h 97 % 0.5 mm 190 W/m2
11:15 18.9 °C 18.4 °C 1014.1 hPa ENE 1.6 km/h 17.7 km/h 97 % 0.5 mm 171 W/m2
11:20 19.1 °C 18.6 °C 1014.1 hPa Calm   12.9 km/h 97 % 0.5 mm 195 W/m2
11:25 19.2 °C 18.5 °C 1014.1 hPa ENE 3.2 km/h 11.3 km/h 96 % 0.5 mm 151 W/m2
11:30 19.2 °C 18.5 °C 1013.8 hPa ENE 3.2 km/h 12.9 km/h 96 % 0.5 mm 155 W/m2
11:35 19.3 °C 18.6 °C 1013.8 hPa Calm   12.9 km/h 96 % 0.3 mm 139 W/m2
11:40 19.4 °C 18.7 °C 1013.8 hPa NE 6.4 km/h 8.0 km/h 96 % 0.3 mm 165 W/m2
11:45 19.4 °C 18.7 °C 1014.1 hPa NE 3.2 km/h 8.0 km/h 96 % 0.0 mm 114 W/m2
11:50 19.7 °C 19.0 °C 1014.1 hPa NNW 8.0 km/h 11.3 km/h 96 % 0.0 mm 127 W/m2
11:55 19.7 °C 19.1 °C 1014.1 hPa Calm   11.3 km/h 96 % 0.0 mm 199 W/m2
12:00 19.7 °C 19.1 °C 1014.8 hPa Calm   8.0 km/h 96 % 0.0 mm 86 W/m2
12:05 19.7 °C 18.8 °C 1014.8 hPa Calm   8.0 km/h 95 % 0.0 mm 58 W/m2
12:10 19.7 °C 18.8 °C 1015.1 hPa Calm   8.0 km/h 95 % 0.0 mm 69 W/m2
12:15 19.8 °C 19.2 °C 1014.8 hPa North 4.8 km/h 6.4 km/h 96 % 0.0 mm 223 W/m2
12:20 20.2 °C 19.5 °C 1015.1 hPa WNW 4.8 km/h 9.7 km/h 96 % 0.0 mm 420 W/m2
12:25 20.4 °C 19.8 °C 1015.1 hPa NW 3.2 km/h 11.3 km/h 96 % 0.0 mm 406 W/m2
12:30 20.6 °C 19.8 °C 1015.1 hPa North 6.4 km/h 11.3 km/h 95 % 0.0 mm 172 W/m2
12:35 20.4 °C 19.4 °C 1014.8 hPa Calm   8.0 km/h 94 % 0.0 mm 200 W/m2
12:40 20.6 °C 19.8 °C 1014.8 hPa Calm   8.0 km/h 95 % 0.0 mm 448 W/m2
12:45 21.5 °C 20.8 °C 1014.8 hPa NE 4.8 km/h 8.0 km/h 96 % 0.0 mm 547 W/m2
12:50 22.0 °C 20.8 °C 1014.8 hPa ENE 1.6 km/h 11.3 km/h 93 % 0.0 mm 765 W/m2
13:00 22.6 °C 20.7 °C 1014.8 hPa ESE 8.0 km/h 12.9 km/h 89 % 0.0 mm 403 W/m2
13:05 22.7 °C 20.8 °C 1014.1 hPa East 9.7 km/h 12.9 km/h 89 % 0.0 mm 633 W/m2
13:10 22.7 °C 20.4 °C 1014.1 hPa NE 4.8 km/h 17.7 km/h 87 % 0.0 mm 928 W/m2
13:15 23.6 °C 21.3 °C 1014.1 hPa NE 8.0 km/h 17.7 km/h 87 % 0.0 mm 868 W/m2
13:20 23.1 °C 20.1 °C 1014.1 hPa NE 3.2 km/h 17.7 km/h 83 % 0.0 mm 552 W/m2
13:25 22.9 °C 20.3 °C 1014.1 hPa ENE 6.4 km/h 17.7 km/h 85 % 0.0 mm 603 W/m2
13:30 23.4 °C 20.9 °C 1014.1 hPa ENE 6.4 km/h 16.1 km/h 86 % 0.0 mm 566 W/m2
13:35 23.4 °C 20.0 °C 1013.8 hPa ESE 9.7 km/h 14.5 km/h 81 % 0.0 mm 452 W/m2
13:40 23.5 °C 20.2 °C 1013.8 hPa East 6.4 km/h 12.9 km/h 82 % 0.0 mm 448 W/m2
13:45 23.5 °C 20.0 °C 1014.1 hPa East 1.6 km/h 12.9 km/h 81 % 0.0 mm 399 W/m2
13:50 23.4 °C 20.4 °C 1013.8 hPa NE 3.2 km/h 12.9 km/h 83 % 0.0 mm 267 W/m2
13:55 23.3 °C 20.4 °C 1013.8 hPa ENE 3.2 km/h 11.3 km/h 84 % 0.0 mm 234 W/m2
14:00 23.2 °C 20.7 °C 1013.8 hPa NE 4.8 km/h 11.3 km/h 86 % 0.0 mm 243 W/m2
14:05 22.9 °C 20.4 °C 1013.4 hPa NNE 9.7 km/h 9.7 km/h 86 % 0.0 mm 223 W/m2
14:10 22.8 °C 20.3 °C 1013.4 hPa ENE 4.8 km/h 11.3 km/h 86 % 0.0 mm 383 W/m2
14:15 23.5 °C 21.4 °C 1013.4 hPa NE 4.8 km/h 11.3 km/h 88 % 0.0 mm 457 W/m2
14:20 23.7 °C 21.0 °C 1013.8 hPa East 6.4 km/h 12.9 km/h 85 % 0.0 mm 515 W/m2
14:30 24.1 °C 20.6 °C 1013.8 hPa North 4.8 km/h 9.7 km/h 81 % 0.0 mm 327 W/m2
14:35 23.8 °C 20.7 °C 1013.8 hPa North 1.6 km/h 9.7 km/h 83 % 0.0 mm 360 W/m2
14:40 23.9 °C 21.2 °C 1013.8 hPa North 3.2 km/h 6.4 km/h 85 % 0.0 mm 352 W/m2
14:45 23.9 °C 21.1 °C 1013.1 hPa NNE 6.4 km/h 8.0 km/h 84 % 0.0 mm 364 W/m2
14:50 24.1 °C 20.8 °C 1012.8 hPa Calm   14.5 km/h 82 % 0.0 mm 320 W/m2
14:55 24.2 °C 20.7 °C 1012.8 hPa ENE 6.4 km/h 16.1 km/h 81 % 0.0 mm 302 W/m2
15:00 24.3 °C 20.6 °C 1012.8 hPa ENE 4.8 km/h 16.1 km/h 80 % 0.0 mm 325 W/m2
15:05 24.2 °C 21.2 °C 1012.4 hPa NE 6.4 km/h 16.1 km/h 83 % 0.0 mm 253 W/m2
15:15 24.9 °C 21.5 °C 1012.8 hPa East 9.7 km/h 12.9 km/h 81 % 0.0 mm 471 W/m2
15:20 25.7 °C 22.2 °C 1012.8 hPa ENE 3.2 km/h 12.9 km/h 81 % 0.0 mm 710 W/m2
15:25 25.9 °C 22.2 °C 1012.8 hPa East 1.6 km/h 11.3 km/h 80 % 0.0 mm 450 W/m2
15:30 26.6 °C 22.4 °C 1012.8 hPa SE 11.3 km/h 12.9 km/h 78 % 0.0 mm 578 W/m2
15:35 26.8 °C 21.4 °C 1013.1 hPa ESE 12.9 km/h 17.7 km/h 72 % 0.0 mm 480 W/m2
15:40 26.7 °C 21.0 °C 1012.8 hPa SSE 8.0 km/h 19.3 km/h 71 % 0.0 mm 522 W/m2
15:45 26.8 °C 21.3 °C 1013.1 hPa SE 6.4 km/h 19.3 km/h 72 % 0.0 mm 772 W/m2
15:50 27.4 °C 21.7 °C 1013.1 hPa South 12.9 km/h 16.1 km/h 71 % 0.0 mm 882 W/m2
15:55 27.6 °C 21.6 °C 1013.1 hPa SSE 8.0 km/h 14.5 km/h 70 % 0.0 mm 902 W/m2
16:00 27.2 °C 20.7 °C 1013.1 hPa ESE 11.3 km/h 16.1 km/h 68 % 0.0 mm 420 W/m2
16:05 27.2 °C 21.0 °C 1013.1 hPa Calm   16.1 km/h 69 % 0.0 mm 483 W/m2
16:10 27.0 °C 20.6 °C 1013.1 hPa SE 3.2 km/h 14.5 km/h 68 % 0.0 mm 445 W/m2
16:15 27.1 °C 20.9 °C 1013.1 hPa SE 9.7 km/h 14.5 km/h 69 % 0.0 mm 387 W/m2
16:20 27.6 °C 20.2 °C 1013.1 hPa East 9.7 km/h 20.9 km/h 64 % 0.0 mm 754 W/m2
16:25 27.8 °C 19.8 °C 1013.1 hPa SE 8.0 km/h 20.9 km/h 62 % 0.0 mm 731 W/m2
16:30 27.8 °C 19.6 °C 1013.1 hPa SE 8.0 km/h 24.1 km/h 61 % 0.0 mm 438 W/m2
16:35 27.6 °C 19.4 °C 1012.8 hPa South 1.6 km/h 24.1 km/h 61 % 0.0 mm 415 W/m2
16:40 27.3 °C 19.9 °C 1012.8 hPa ESE 8.0 km/h 20.9 km/h 64 % 0.0 mm 302 W/m2
16:45 27.0 °C 20.1 °C 1012.8 hPa SE 11.3 km/h 17.7 km/h 66 % 0.0 mm 316 W/m2
16:50 26.9 °C 20.1 °C 1012.8 hPa SSE 3.2 km/h 17.7 km/h 66 % 0.0 mm 387 W/m2
16:55 27.3 °C 20.6 °C 1012.8 hPa ESE 8.0 km/h 14.5 km/h 67 % 0.0 mm 408 W/m2
17:00 27.3 °C 20.4 °C 1012.8 hPa SSE 3.2 km/h 14.5 km/h 66 % 0.0 mm 329 W/m2
17:05 27.3 °C 21.1 °C 1012.8 hPa SSE 3.2 km/h 12.9 km/h 69 % 0.0 mm 308 W/m2
17:10 27.1 °C 20.6 °C 1012.4 hPa South 3.2 km/h 16.1 km/h 68 % 0.0 mm 313 W/m2
17:15 27.0 °C 20.8 °C 1012.4 hPa SSE 11.3 km/h 16.1 km/h 69 % 0.0 mm 288 W/m2
17:20 26.8 °C 20.9 °C 1012.4 hPa ESE 3.2 km/h 16.1 km/h 70 % 0.0 mm 237 W/m2
17:25 26.7 °C 21.0 °C 1012.4 hPa South 3.2 km/h 16.1 km/h 71 % 0.0 mm 234 W/m2
17:30 26.6 °C 20.9 °C 1012.4 hPa ESE 11.3 km/h 14.5 km/h 71 % 0.0 mm 248 W/m2
17:35 26.7 °C 21.4 °C 1012.1 hPa South 6.4 km/h 14.5 km/h 73 % 0.0 mm 236 W/m2
17:40 26.7 °C 21.3 °C 1012.1 hPa SE 3.2 km/h 14.5 km/h 72 % 0.0 mm 248 W/m2
17:45 26.8 °C 21.3 °C 1012.4 hPa SSW 12.9 km/h 16.1 km/h 72 % 0.0 mm 403 W/m2
17:50 25.2 °C 18.4 °C 1012.4 hPa SSW 3.2 km/h 19.3 km/h 66 % 0.0 mm 255 W/m2
17:55 24.3 °C 18.5 °C 1012.4 hPa West 6.4 km/h 19.3 km/h 70 % 0.0 mm 315 W/m2
18:00 23.6 °C 17.8 °C 1012.1 hPa SSW 4.8 km/h 16.1 km/h 70 % 0.0 mm 243 W/m2
18:05 23.3 °C 17.8 °C 1012.1 hPa SSW 3.2 km/h 16.1 km/h 71 % 0.0 mm 251 W/m2
18:10 23.3 °C 18.0 °C 1012.1 hPa SSW 9.7 km/h 11.3 km/h 72 % 0.0 mm 244 W/m2
18:20 23.4 °C 17.4 °C 1011.7 hPa SSW 11.3 km/h 14.5 km/h 69 % 0.0 mm 232 W/m2
18:25 23.6 °C 17.6 °C 1012.1 hPa SW 1.6 km/h 14.5 km/h 69 % 0.0 mm 244 W/m2
18:30 23.6 °C 17.3 °C 1012.1 hPa West 8.0 km/h 12.9 km/h 68 % 0.0 mm 232 W/m2
18:35 23.2 °C 16.8 °C 1012.1 hPa WSW 9.7 km/h 14.5 km/h 67 % 0.0 mm 142 W/m2
18:40 22.9 °C 16.9 °C 1012.1 hPa SSW 3.2 km/h 14.5 km/h 69 % 0.0 mm 155 W/m2
18:45 23.1 °C 17.5 °C 1012.1 hPa SSW 4.8 km/h 11.3 km/h 71 % 0.0 mm 227 W/m2
18:50 23.3 °C 17.1 °C 1012.1 hPa SSW 4.8 km/h 12.9 km/h 68 % 0.0 mm 262 W/m2
18:55 23.2 °C 17.2 °C 1012.1 hPa SSW 3.2 km/h 16.1 km/h 69 % 0.0 mm 279 W/m2
19:00 22.9 °C 17.0 °C 1012.1 hPa SSW 4.8 km/h 16.1 km/h 69 % 0.0 mm 281 W/m2
19:05 23.1 °C 16.8 °C 1012.1 hPa SSE 4.8 km/h 14.5 km/h 68 % 0.0 mm 462 W/m2
19:10 23.5 °C 17.3 °C 1012.1 hPa South 12.9 km/h 14.5 km/h 68 % 0.0 mm 446 W/m2
19:15 23.8 °C 17.5 °C 1011.7 hPa South 9.7 km/h 16.1 km/h 68 % 0.0 mm 392 W/m2
19:20 23.8 °C 17.3 °C 1012.1 hPa South 6.4 km/h 16.1 km/h 67 % 0.0 mm 248 W/m2
19:25 23.8 °C 18.0 °C 1012.1 hPa South 6.4 km/h 16.1 km/h 70 % 0.0 mm 313 W/m2
19:30 24.0 °C 17.7 °C 1012.1 hPa SSW 16.1 km/h 20.9 km/h 68 % 0.0 mm 243 W/m2
19:35 23.7 °C 17.5 °C 1012.4 hPa South 11.3 km/h 24.1 km/h 68 % 0.0 mm 139 W/m2
19:40 23.4 °C 17.4 °C 1012.4 hPa SW 1.6 km/h 24.1 km/h 69 % 0.0 mm 132 W/m2
19:45 22.9 °C 17.4 °C 1012.4 hPa West 8.0 km/h 17.7 km/h 71 % 0.0 mm 121 W/m2
19:50 22.4 °C 17.1 °C 1012.4 hPa South 4.8 km/h 17.7 km/h 72 % 0.0 mm 69 W/m2
19:55 22.0 °C 16.9 °C 1012.8 hPa WSW 9.7 km/h 20.9 km/h 73 % 0.0 mm 40 W/m2
20:00 21.6 °C 17.1 °C 1013.1 hPa WSW 17.7 km/h 20.9 km/h 76 % 0.0 mm 33 W/m2
20:05 20.9 °C 16.8 °C 1013.1 hPa WSW 6.4 km/h 20.9 km/h 77 % 0.0 mm 25 W/m2
20:10 20.4 °C 16.7 °C 1013.4 hPa SSW 6.4 km/h 19.3 km/h 79 % 0.0 mm 14 W/m2
20:20 19.8 °C 16.9 °C 1013.4 hPa West 3.2 km/h 24.1 km/h 83 % 0.0 mm 9 W/m2
20:25 19.6 °C 17.0 °C 1013.4 hPa West 9.7 km/h 24.1 km/h 85 % 0.3 mm 11 W/m2
20:30 19.1 °C 16.9 °C 1013.4 hPa SW 6.4 km/h 17.7 km/h 87 % 0.3 mm 9 W/m2
20:35 18.8 °C 16.8 °C 1013.4 hPa Calm   11.3 km/h 88 % 0.3 mm 7 W/m2
20:40 18.8 °C 16.9 °C 1013.4 hPa WSW 1.6 km/h 11.3 km/h 89 % 0.3 mm 7 W/m2
20:45 18.7 °C 17.0 °C 1012.8 hPa NNW 3.2 km/h 11.3 km/h 90 % 0.3 mm 5 W/m2
20:50 18.6 °C 16.9 °C 1012.4 hPa West 6.4 km/h 8.0 km/h 90 % 0.3 mm 5 W/m2
20:55 18.6 °C 17.1 °C 1013.1 hPa West 16.1 km/h 16.1 km/h 91 % 0.3 mm 5 W/m2
21:00 18.6 °C 16.9 °C 1013.1 hPa West 8.0 km/h 16.1 km/h 90 % 0.3 mm 11 W/m2
21:05 18.5 °C 17.0 °C 1013.1 hPa WSW 6.4 km/h 17.7 km/h 91 % 0.3 mm 14 W/m2
21:10 18.4 °C 16.9 °C 1013.1 hPa WSW 6.4 km/h 17.7 km/h 91 % 0.3 mm 14 W/m2
21:15 18.3 °C 17.0 °C 1012.8 hPa Calm   14.5 km/h 92 % 0.3 mm 12 W/m2
21:20 18.2 °C 16.9 °C 1012.8 hPa Calm   8.0 km/h 92 % 0.3 mm 12 W/m2
21:25 18.2 °C 16.8 °C 1012.8 hPa Calm   8.0 km/h 92 % 0.0 mm 11 W/m2
21:30 18.1 °C 17.0 °C 1012.8 hPa WSW 3.2 km/h 4.8 km/h 93 % 0.0 mm 7 W/m2
21:35 18.1 °C 16.9 °C 1012.8 hPa SSW 3.2 km/h 8.0 km/h 93 % 0.0 mm 5 W/m2
21:40 18.0 °C 16.9 °C 1012.4 hPa SSE 4.8 km/h 8.0 km/h 93 % 0.0 mm 5 W/m2
21:45 17.9 °C 16.8 °C 1012.4 hPa SSE 1.6 km/h 8.0 km/h 93 % 0.0 mm 0 W/m2
21:50 17.9 °C 16.7 °C 1012.4 hPa SSE 3.2 km/h 8.0 km/h 93 % 0.0 mm 0 W/m2
21:55 17.8 °C 16.6 °C 1012.4 hPa SE 4.8 km/h 8.0 km/h 93 % 0.0 mm 0 W/m2
22:00 17.8 °C 16.8 °C 1012.8 hPa Calm   8.0 km/h 94 % 0.0 mm 0 W/m2
22:05 17.7 °C 16.7 °C 1012.8 hPa SSE 4.8 km/h 9.7 km/h 94 % 0.0 mm 0 W/m2
22:10 17.7 °C 16.7 °C 1012.8 hPa SE 4.8 km/h 9.7 km/h 94 % 0.0 mm 0 W/m2
22:15 17.6 °C 16.6 °C 1013.1 hPa South 8.0 km/h 9.7 km/h 94 % 0.0 mm 0 W/m2
22:25 17.7 °C 16.7 °C 1013.1 hPa Calm   8.0 km/h 94 % 0.0 mm 0 W/m2
22:30 17.6 °C 16.6 °C 1012.8 hPa South 1.6 km/h 8.0 km/h 94 % 0.0 mm 0 W/m2
22:35 17.6 °C 16.6 °C 1012.8 hPa Calm   4.8 km/h 94 % 0.0 mm 0 W/m2
22:40 17.5 °C 16.5 °C 1012.8 hPa SE 3.2 km/h 4.8 km/h 94 % 0.0 mm 0 W/m2
22:45 17.5 °C 16.5 °C 1013.1 hPa SE 4.8 km/h 6.4 km/h 94 % 0.0 mm 0 W/m2
22:50 17.4 °C 16.5 °C 1013.4 hPa Calm   6.4 km/h 94 % 0.0 mm 0 W/m2
22:55 17.4 °C 16.5 °C 1013.1 hPa Calm   6.4 km/h 94 % 0.0 mm 0 W/m2
23:00 17.3 °C 16.3 °C 1013.1 hPa South 3.2 km/h 6.4 km/h 94 % 0.0 mm 0 W/m2
23:05 17.3 °C 16.5 °C 1013.1 hPa South 1.6 km/h 4.8 km/h 95 % 0.0 mm 0 W/m2
23:10 17.2 °C 16.4 °C 1013.1 hPa Calm   3.2 km/h 95 % 0.0 mm 0 W/m2
23:15 17.2 °C 16.4 °C 1012.8 hPa Calm   3.2 km/h 95 % 0.0 mm 0 W/m2
23:20 17.2 °C 16.4 °C 1013.1 hPa South 1.6 km/h 3.2 km/h 95 % 0.0 mm 0 W/m2
23:25 17.2 °C 16.4 °C 1013.1 hPa South 3.2 km/h 6.4 km/h 95 % 0.0 mm 0 W/m2
23:30 17.4 °C 16.6 °C 1013.1 hPa Calm   9.7 km/h 95 % 0.0 mm 0 W/m2
23:35 17.6 °C 16.8 °C 1013.1 hPa SSW 8.0 km/h 9.7 km/h 95 % 0.0 mm 0 W/m2
23:40 17.8 °C 17.0 °C 1013.1 hPa SSW 14.5 km/h 14.5 km/h 95 % 0.0 mm 0 W/m2
23:45 17.9 °C 17.1 °C 1013.4 hPa SSW 14.5 km/h 16.1 km/h 95 % 0.0 mm 0 W/m2
23:50 18.0 °C 17.0 °C 1013.1 hPa SSW 11.3 km/h 19.3 km/h 94 % 0.0 mm 0 W/m2
23:55 18.1 °C 17.1 °C 1013.4 hPa South 11.3 km/h 19.3 km/h 94 % 0.0 mm 0 W/m2
Avec l'autorisation de Weather Underground - 1.75 mb